Time;durP1;ratioP1;P1;durP2;ratioP2;P2;SDS_P1;SDS_P2;PMS_P1;PMS_P2;Temp;Humidity;BMP_temperature;BMP_pressure;BME280_temperature;BME280_humidity;BME280_pressure;Samples;Min_cycle;Max_cycle;Signal;HPM_P1;HPM_P2
2022/06/08 00:02:10;;;;;;;2.88;2.65;;;17.10;99.90;;;17.23;100.00;100214.41;5009237;28;20045;-77
2022/06/08 00:04:40;;;;;;;3.95;2.60;;;17.00;99.90;;;17.22;100.00;100210.88;5008209;28;20045;-76
2022/06/08 00:07:07;;;;;;;4.57;2.38;;;17.00;99.90;;;17.17;100.00;100198.75;5009457;28;20092;-76
2022/06/08 00:09:53;;;;;;;4.68;3.20;;;17.00;99.90;;;17.11;100.00;100207.94;4979661;28;20069;-78
2022/06/08 00:12:20;;;;;;;5.82;2.38;;;17.00;99.90;;;17.06;100.00;100196.69;5007999;28;20042;-77
2022/06/08 00:14:48;;;;;;;4.95;2.60;;;16.90;99.90;;;17.07;100.00;100193.97;5007814;28;20113;-77
2022/06/08 00:17:15;;;;;;;5.25;2.67;;;16.90;99.90;;;17.06;100.00;100191.38;5021713;28;20556;-77
2022/06/08 00:19:43;;;;;;;7.95;2.83;;;16.90;99.90;;;17.00;100.00;100184.59;5045672;28;20124;-78
2022/06/08 00:22:11;;;;;;;2.42;2.17;;;16.80;99.90;;;16.97;100.00;100182.94;5030234;28;20045;-79
2022/06/08 00:24:38;;;;;;;4.70;2.60;;;16.90;99.90;;;16.99;100.00;100189.06;5046244;28;20137;-77
2022/06/08 00:27:06;;;;;;;3.40;2.20;;;16.80;99.90;;;16.91;100.00;100185.91;5031080;28;20056;-76
2022/06/08 00:29:33;;;;;;;3.33;2.67;;;16.80;99.90;;;16.93;100.00;100189.34;5028520;28;20149;-78
2022/06/08 00:32:00;;;;;;;6.13;2.65;;;16.70;99.90;;;16.82;100.00;100183.75;5030318;28;20172;-76
2022/06/08 00:34:28;;;;;;;3.25;2.95;;;16.70;99.90;;;16.84;100.00;100177.41;5029112;28;20065;-78
2022/06/08 00:36:55;;;;;;;8.52;3.35;;;16.70;99.90;;;16.79;100.00;100176.81;5030051;28;20051;-77
2022/06/08 00:39:22;;;;;;;5.57;2.97;;;16.70;99.90;;;16.79;100.00;100176.81;5029970;28;20501;-78
2022/06/08 00:41:55;;;;;;;6.85;3.15;;;17.00;99.90;;;16.75;100.00;100172.59;5019459;28;20045;-77
2022/06/08 00:44:26;;;;;;;4.40;3.38;;;16.70;99.90;;;16.75;100.00;100169.94;5046243;28;20104;-77
2022/06/08 00:46:56;;;;;;;3.42;3.13;;;16.70;99.90;;;16.75;100.00;100166.41;5029928;28;20052;-76
2022/06/08 00:49:30;;;;;;;4.40;2.90;;;16.60;99.90;;;16.76;100.00;100171.66;5045237;28;20494;-77
2022/06/08 00:52:00;;;;;;;3.45;2.85;;;16.60;99.90;;;16.65;100.00;100164.25;5029770;28;20045;-77
2022/06/08 00:54:38;;;;;;;3.88;3.00;;;16.50;99.90;;;16.71;100.00;100166.59;5028857;28;20053;-77
2022/06/08 00:57:17;;;;;;;5.50;3.17;;;16.50;99.90;;;16.66;100.00;100168.63;5029296;28;20052;-76
2022/06/08 00:59:59;;;;;;;5.72;2.95;;;16.50;99.90;;;16.65;100.00;100174.00;5027652;28;20049;-76
2022/06/08 01:02:28;;;;;;;3.35;2.90;;;17.50;99.90;;;16.55;100.00;100161.25;5030431;28;20561;-77
2022/06/08 01:05:31;;;;;;;;;;;16.50;99.90;;;16.64;100.00;100169.66;5029459;28;20072;-76
2022/06/08 01:08:19;;;;;;;5.10;2.97;;;16.40;99.90;;;16.54;100.00;100163.97;5028869;28;19929;-77
2022/06/08 01:10:50;;;;;;;4.43;3.38;;;16.80;99.90;;;16.48;100.00;100151.84;5043497;28;20116;-77
2022/06/08 01:13:21;;;;;;;3.45;2.90;;;16.30;99.90;;;16.42;100.00;100158.34;5028673;28;20041;-77
2022/06/08 01:15:49;;;;;;;4.68;2.97;;;16.30;99.90;;;16.43;100.00;100154.75;5012447;28;20414;-77
2022/06/08 01:18:20;;;;;;;4.55;3.00;;;16.30;99.90;;;16.42;100.00;100158.34;5028447;28;20045;-77
2022/06/08 01:20:55;;;;;;;5.05;2.90;;;16.20;99.90;;;16.42;100.00;100161.00;5026911;28;20236;-77
2022/06/08 01:23:30;;;;;;;4.93;3.10;;;16.30;99.90;;;16.33;100.00;100157.97;4997632;28;20735;-76
2022/06/08 01:26:20;;;;;;;5.32;3.08;;;16.30;99.90;;;16.40;100.00;100159.38;5028308;28;20134;-76
2022/06/08 01:29:15;;;;;;;4.15;3.17;;;16.30;99.90;;;16.39;100.00;100161.16;5025537;28;20056;-76
2022/06/08 01:32:25;;;;;;;5.78;3.53;;;16.20;99.90;;;16.40;100.00;100160.22;5026611;28;20155;-77
2022/06/08 01:35:21;;;;;;;2.75;2.47;;;16.30;99.90;;;16.47;100.00;100159.91;5028761;28;20143;-76
2022/06/08 01:38:04;;;;;;;4.95;3.33;;;16.20;99.90;;;16.35;100.00;100159.63;5031035;28;20837;-77
2022/06/08 01:41:02;;;;;;;6.47;3.33;;;16.30;99.90;;;16.49;100.00;100152.72;5027106;28;20498;-77
2022/06/08 01:44:16;;;;;;;7.55;4.20;;;16.30;99.90;;;16.50;100.00;100154.44;5027126;28;20046;-77
2022/06/08 01:46:54;;;;;;;4.70;3.67;;;16.30;99.90;;;16.56;100.00;100152.34;5016100;28;20050;-77
2022/06/08 01:49:38;;;;;;;11.65;5.57;;;16.30;99.90;;;16.64;100.00;100151.06;5023676;28;20121;-77
2022/06/08 01:52:17;;;;;;;7.45;4.15;;;16.40;99.90;;;16.62;100.00;100147.63;5023761;28;20052;-77
2022/06/08 01:55:21;;;;;;;7.07;4.20;;;16.40;99.90;;;16.67;100.00;100148.22;5023380;28;20042;-77
2022/06/08 01:58:12;;;;;;;4.90;4.03;;;16.50;99.90;;;16.68;100.00;100150.81;5006830;28;20052;-77
2022/06/08 02:00:54;;;;;;;6.38;4.47;;;16.50;99.90;;;16.76;100.00;100145.09;5022519;28;20058;-77
2022/06/08 02:04:06;;;;;;;5.03;4.00;;;16.50;99.90;;;16.74;100.00;100141.66;5006436;28;20527;-77
2022/06/08 02:07:17;;;;;;;5.82;4.03;;;16.50;99.90;;;16.76;100.00;100129.16;4992284;28;20308;-77
2022/06/08 02:10:13;;;;;;;4.72;4.05;;;16.50;99.90;;;16.74;100.00;100131.03;5006020;28;20050;-77
2022/06/08 02:12:56;;;;;;;5.07;4.15;;;16.60;99.90;;;16.75;100.00;100127.44;4993672;28;20061;-75
2022/06/08 02:15:39;;;;;;;4.47;3.67;;;16.50;99.90;;;16.73;100.00;100130.16;5006361;28;20104;-77
2022/06/08 02:18:33;;;;;;;4.65;3.50;;;16.50;99.90;;;16.71;100.00;100123.25;5007648;28;20133;-77
2022/06/08 02:21:18;;;;;;;6.00;4.00;;;16.50;99.90;;;16.70;100.00;100125.03;4992048;28;20050;-77
2022/06/08 02:24:01;;;;;;;5.40;4.50;;;16.50;99.90;;;16.71;100.00;100120.59;4997310;28;20060;-76
2022/06/08 02:26:46;;;;;;;3.95;3.25;;;16.50;99.90;;;16.64;100.00;100119.19;5010592;28;20049;-77
2022/06/08 02:29:47;;;;;;;6.93;3.97;;;16.50;99.90;;;16.56;100.00;100116.94;5006161;28;20069;-77
2022/06/08 02:35:41;;;;;;;6.05;4.03;;;16.30;99.90;;;16.53;100.00;100109.13;4984662;28;20281;-77
2022/06/08 02:38:13;;;;;;;6.07;3.97;;;16.40;99.90;;;16.48;100.00;100108.53;4969983;28;20165;-76
2022/06/08 02:40:56;;;;;;;5.15;3.20;;;16.30;99.90;;;16.45;100.00;100102.41;4975580;28;20514;-77
2022/06/08 02:43:37;;;;;;;3.78;3.38;;;16.30;99.90;;;16.43;100.00;100104.31;5006292;28;20049;-77
2022/06/08 02:46:59;;;;;;;5.63;3.67;;;16.30;99.90;;;16.47;100.00;100097.03;5005829;28;20052;-76
2022/06/08 02:49:34;;;;;;;6.40;3.63;;;16.30;99.90;;;16.43;100.00;100099.00;5038897;28;20046;-77
2022/06/08 02:52:14;;;;;;;7.18;3.35;;;17.60;99.90;;;16.29;100.00;100101.50;5025448;28;20045;-76
2022/06/08 02:54:43;;;;;;;6.07;4.05;;;16.50;99.90;;;16.32;100.00;100104.03;5025675;28;20052;-76
2022/06/08 02:57:23;;;;;;;5.32;3.10;;;16.20;99.90;;;16.26;100.00;100099.91;5025724;28;20049;-76
2022/06/08 02:59:59;;;;;;;4.55;3.33;;;16.20;99.90;;;16.29;100.00;100106.81;5009350;28;20042;-76
2022/06/08 03:02:55;;;;;;;5.88;3.17;;;17.50;99.90;;;16.30;100.00;100097.91;5024647;28;20065;-76
2022/06/08 03:05:35;;;;;;;5.45;3.58;;;16.10;99.90;;;16.27;100.00;100096.28;5012103;28;20052;-76
2022/06/08 03:08:15;;;;;;;5.10;3.30;;;16.10;99.90;;;16.16;100.00;100093.34;5009970;28;20130;-76
2022/06/08 03:10:45;;;;;;;5.70;3.15;;;16.10;99.90;;;16.12;100.00;100084.66;5025007;28;20391;-77
2022/06/08 03:13:30;;;;;;;4.13;3.17;;;16.00;99.90;;;16.09;100.00;100091.94;5025584;28;20540;-77
2022/06/08 03:16:02;;;;;;;4.55;3.60;;;16.00;99.90;;;16.13;100.00;100085.53;5026093;28;20418;-76
2022/06/08 03:18:34;;;;;;;6.03;3.50;;;16.00;99.90;;;16.09;100.00;100079.53;5025437;28;20573;-75
2022/06/08 03:21:04;;;;;;;5.82;3.40;;;16.00;99.90;;;16.14;100.00;100081.94;5024336;28;20185;-76
2022/06/08 03:23:33;;;;;;;3.72;3.08;;;15.90;99.90;;;16.09;100.00;100081.34;5024707;28;20049;-76
2022/06/08 03:26:02;;;;;;;4.68;3.20;;;16.00;99.90;;;16.02;100.00;100071.03;5025861;28;20049;-76
2022/06/08 03:28:31;;;;;;;5.20;3.50;;;15.90;99.90;;;15.97;100.00;100080.16;5009258;28;20065;-76
2022/06/08 03:30:58;;;;;;;6.00;3.75;;;16.00;99.90;;;15.93;100.00;100074.16;5024376;28;20048;-76
2022/06/08 03:33:25;;;;;;;4.03;3.63;;;15.90;99.90;;;15.88;100.00;100076.13;5024575;28;20098;-76
2022/06/08 03:35:53;;;;;;;6.25;3.25;;;15.80;99.90;;;15.91;100.00;100080.47;5025458;28;20049;-77
2022/06/08 03:38:23;;;;;;;5.72;3.35;;;15.90;99.90;;;15.94;100.00;100077.66;5024767;28;20053;-76
2022/06/08 03:40:53;;;;;;;6.00;3.40;;;15.90;99.90;;;15.93;100.00;100086.56;5021847;28;20166;-75
2022/06/08 03:43:20;;;;;;;6.60;3.60;;;15.80;99.90;;;15.87;100.00;100090.34;5025650;28;20037;-75
2022/06/08 03:45:55;;;;;;;6.07;3.30;;;15.80;99.90;;;15.93;100.00;100086.56;5025461;28;20076;-76
2022/06/08 03:48:23;;;;;;;6.22;3.28;;;16.10;99.90;;;15.87;100.00;100077.94;5020148;28;20060;-76
2022/06/08 03:50:53;;;;;;;8.20;4.15;;;15.80;99.90;;;15.87;100.00;100083.25;5025199;28;20048;-76
2022/06/08 03:53:40;;;;;;;6.18;3.17;;;15.80;99.90;;;15.90;100.00;100078.75;5011421;28;20064;-76
2022/06/08 03:56:14;;;;;;;5.47;3.50;;;15.80;99.90;;;15.91;100.00;100081.31;5009413;28;20177;-76
2022/06/08 03:58:41;;;;;;;4.25;3.00;;;16.60;99.90;;;15.88;100.00;100081.44;5009026;28;20042;-76
2022/06/08 04:01:14;;;;;;;4.20;3.13;;;16.00;99.90;;;15.88;100.00;100082.31;5022331;28;20779;-76
2022/06/08 04:03:44;;;;;;;11.43;4.13;;;15.90;99.90;;;15.93;100.00;100084.78;5008704;28;20057;-76
2022/06/08 04:06:12;;;;;;;4.50;2.88;;;15.80;99.90;;;15.81;100.00;100082.72;5012300;28;20419;-75
2022/06/08 04:08:39;;;;;;;4.30;2.95;;;15.80;99.90;;;15.84;100.00;100080.78;5009818;28;20462;-76
2022/06/08 04:11:07;;;;;;;5.07;3.13;;;15.80;99.90;;;15.89;100.00;100077.88;5007981;28;20049;-76
2022/06/08 04:13:35;;;;;;;4.88;3.63;;;15.70;99.90;;;15.91;100.00;100073.34;5009106;28;20041;-76
2022/06/08 04:16:09;;;;;;;6.85;2.92;;;15.70;99.90;;;15.85;100.00;100076.31;5012650;28;20052;-77
2022/06/08 04:18:40;;;;;;;6.97;3.15;;;15.70;99.90;;;15.88;100.00;100076.13;5044842;28;20105;-76
2022/06/08 04:21:10;;;;;;;4.93;2.85;;;15.80;99.90;;;15.91;100.00;100072.50;5027548;28;20099;-76
2022/06/08 04:23:45;;;;;;;5.35;2.55;;;15.70;99.90;;;15.85;100.00;100074.53;5027953;28;20077;-76
2022/06/08 04:26:16;;;;;;;5.28;3.40;;;15.70;99.90;;;15.89;100.00;100069.94;5028525;28;20076;-76
2022/06/08 04:28:45;;;;;;;6.07;3.00;;;15.80;99.90;;;15.82;100.00;100073.81;5028092;28;20057;-76
2022/06/08 04:31:17;;;;;;;4.82;3.38;;;15.80;99.90;;;15.86;100.00;100068.28;5028068;28;20401;-76
2022/06/08 04:33:49;;;;;;;5.65;3.90;;;15.80;99.90;;;15.93;100.00;100075.94;5044899;28;20053;-78
2022/06/08 04:36:21;;;;;;;5.55;2.92;;;15.70;99.90;;;15.91;100.00;100078.66;5028282;28;20053;-75
2022/06/08 04:38:48;;;;;;;9.50;3.47;;;15.70;99.90;;;15.90;100.00;100084.91;5028275;28;20080;-77
2022/06/08 04:41:17;;;;;;;3.88;2.95;;;15.70;99.90;;;15.88;100.00;100082.31;5028319;28;20049;-76
2022/06/08 04:43:44;;;;;;;4.20;3.63;;;15.80;99.90;;;15.95;100.00;100084.69;5028167;28;20076;-76
2022/06/08 04:46:15;;;;;;;5.88;3.30;;;16.40;99.90;;;15.93;100.00;100081.25;5011942;28;20053;-77
2022/06/08 04:48:49;;;;;;;6.80;3.70;;;15.80;99.90;;;15.91;100.00;100085.78;5027881;28;20045;-76
2022/06/08 04:51:20;;;;;;;4.97;3.10;;;15.80;99.90;;;15.94;100.00;100089.16;5027703;28;20054;-76
2022/06/08 04:53:50;;;;;;;4.97;3.17;;;15.80;99.90;;;15.92;100.00;100084.84;5027546;28;20095;-76
2022/06/08 04:56:19;;;;;;;7.70;3.08;;;15.80;99.90;;;15.96;100.00;100076.66;5011973;28;20053;-75
2022/06/08 04:58:54;;;;;;;4.80;2.65;;;15.80;99.90;;;16.00;100.00;100072.03;5027827;28;20411;-76
2022/06/08 05:01:23;;;;;;;5.22;3.47;;;15.80;99.90;;;15.99;100.00;100070.31;5027878;28;20065;-76
2022/06/08 05:03:51;;;;;;;4.18;3.42;;;15.80;99.90;;;16.03;100.00;100077.19;5026595;28;20485;-76
2022/06/08 05:06:19;;;;;;;6.63;3.17;;;15.90;99.90;;;16.08;100.00;100063.66;5011858;28;20045;-76
2022/06/08 05:08:47;;;;;;;6.93;3.20;;;15.90;99.90;;;16.08;100.00;100066.31;5010958;28;20077;-76
2022/06/08 05:11:19;;;;;;;5.85;3.28;;;15.90;99.90;;;16.10;100.00;100065.31;5027638;28;20045;-76
2022/06/08 05:13:48;;;;;;;6.13;3.05;;;15.90;99.90;;;16.10;100.00;100067.97;5011013;28;20038;-76
2022/06/08 05:16:18;;;;;;;5.00;2.72;;;15.90;99.90;;;16.18;100.00;100066.72;5027692;28;20426;-76
2022/06/08 05:18:48;;;;;;;6.18;3.00;;;16.00;99.90;;;16.16;100.00;100064.13;5026958;28;20423;-76
2022/06/08 05:21:22;;;;;;;;;;;16.00;99.90;;;16.24;100.00;100056.66;5011853;28;20053;-77
2022/06/08 05:23:53;;;;;;;4.25;2.60;;;16.00;99.90;;;16.25;100.00;100055.72;5010605;28;20024;-77
2022/06/08 05:26:31;;;;;;;5.57;3.50;;;16.10;99.90;;;16.34;100.00;100059.66;5027613;28;20049;-77
2022/06/08 05:28:58;;;;;;;5.53;2.55;;;16.10;99.90;;;16.37;100.00;100058.63;5026522;28;20050;-76
2022/06/08 05:31:30;;;;;;;5.68;2.42;;;16.20;99.90;;;16.37;100.00;100059.50;5027450;28;20087;-76
2022/06/08 05:33:57;;;;;;;8.10;2.63;;;16.30;99.90;;;16.42;100.00;100057.44;5027047;28;20104;-77
2022/06/08 05:36:27;;;;;;;5.82;3.00;;;16.30;99.90;;;16.56;100.00;100055.84;5027585;28;20068;-76
2022/06/08 05:38:59;;;;;;;7.22;3.15;;;16.50;99.90;;;16.64;100.00;100051.00;5026662;28;20580;-76
2022/06/08 05:41:44;;;;;;;6.32;2.53;;;16.40;99.90;;;16.61;100.00;100040.50;5027210;28;20037;-75
2022/06/08 05:44:12;;;;;;;7.93;2.55;;;16.50;99.90;;;16.63;100.00;100043.09;5026458;28;20059;-76
2022/06/08 05:46:40;;;;;;;4.10;2.55;;;16.50;99.90;;;16.75;100.00;100047.75;5043803;28;20065;-76
2022/06/08 05:49:12;;;;;;;5.57;2.67;;;16.60;99.90;;;16.84;100.00;100043.72;5028307;28;20054;-77
2022/06/08 05:51:46;;;;;;;4.68;3.13;;;16.60;99.90;;;16.82;100.00;100038.47;5027461;28;20041;-76
2022/06/08 05:54:22;;;;;;;5.60;2.85;;;16.70;99.90;;;16.89;100.00;100038.16;5018831;28;20445;-77
2022/06/08 05:56:49;;;;;;;4.43;2.33;;;16.70;99.90;;;16.93;100.00;100037.03;5027124;28;20052;-77
2022/06/08 05:59:18;;;;;;;6.00;3.47;;;16.80;99.90;;;16.94;100.00;100039.63;5010089;28;20092;-75
2022/06/08 06:02:13;;;;;;;4.47;2.70;;;16.80;99.90;;;17.08;100.00;100043.31;5026045;28;20098;-77
2022/06/08 06:04:42;;;;;;;6.20;2.92;;;16.80;99.90;;;17.04;100.00;100037.31;5022676;28;20053;-77
2022/06/08 06:07:11;;;;;;;4.38;3.30;;;16.90;99.90;;;17.14;100.00;100032.34;5023279;28;20053;-76
2022/06/08 06:09:43;;;;;;;3.30;2.80;;;16.90;99.90;;;17.26;100.00;100036.09;5006188;28;20050;-76
2022/06/08 06:12:13;;;;;;;5.28;2.50;;;17.00;99.90;;;17.29;100.00;100030.59;5023052;28;20548;-75
2022/06/08 06:14:40;;;;;;;6.88;3.00;;;17.10;99.90;;;17.37;100.00;100024.84;5039962;28;20049;-77
2022/06/08 06:17:07;;;;;;;4.72;2.55;;;17.10;99.90;;;17.44;100.00;100027.03;5023623;28;20049;-75
2022/06/08 06:19:36;;;;;;;5.97;2.95;;;17.20;99.90;;;17.50;100.00;100022.34;5031655;28;20045;-76
2022/06/08 06:22:22;;;;;;;8.07;2.60;;;17.30;99.90;;;17.54;100.00;100022.03;5030148;28;20076;-76
2022/06/08 06:25:10;;;;;;;9.05;2.90;;;17.40;99.90;;;17.64;100.00;100026.81;5032102;28;20065;-77
2022/06/08 06:27:49;;;;;;;7.05;3.45;;;17.40;99.90;;;17.83;100.00;100022.13;5048215;28;20037;-75
2022/06/08 06:30:36;;;;;;;7.25;2.83;;;17.40;99.90;;;17.96;100.00;100024.91;5042264;28;20045;-79
2022/06/08 06:33:27;;;;;;;4.82;2.15;;;17.60;99.90;;;18.10;100.00;100018.78;5031718;28;20102;-73
2022/06/08 06:35:56;;;;;;;10.63;3.03;;;19.30;99.90;;;18.19;100.00;100016.50;5027027;28;20041;-74
2022/06/08 06:38:23;;;;;;;5.50;2.58;;;18.00;99.90;;;18.27;100.00;100008.88;5027712;28;20754;-75
2022/06/08 06:40:51;;;;;;;3.50;2.20;;;18.10;99.80;;;18.65;100.00;100013.59;5013184;28;20045;-80
2022/06/08 06:43:23;;;;;;;4.13;2.40;;;17.00;99.70;;;18.59;100.00;100011.34;5030814;28;20049;-78
2022/06/08 06:46:13;;;;;;;4.57;2.47;;;18.30;99.70;;;18.65;100.00;100012.75;5020469;28;20068;-81
2022/06/08 06:49:00;;;;;;;7.50;2.65;;;18.40;99.30;;;18.69;100.00;100008.94;5000110;28;20060;-79
2022/06/08 06:51:27;;;;;;;6.60;2.22;;;18.50;99.30;;;18.77;100.00;100000.44;5014215;28;20128;-77
2022/06/08 06:53:55;;;;;;;7.50;3.08;;;18.60;99.30;;;18.87;100.00;99998.91;4990917;28;20706;-77
2022/06/08 06:56:22;;;;;;;10.05;2.65;;;18.70;99.10;;;18.88;100.00;99989.97;5010541;28;20045;-78
2022/06/08 06:59:01;;;;;;;5.00;2.13;;;18.70;99.10;;;18.90;100.00;99984.53;5011948;28;20474;-79
2022/06/08 07:01:30;;;;;;;6.40;2.40;;;18.80;98.90;;;18.99;100.00;99986.63;5011479;28;20136;-77
2022/06/08 07:03:57;;;;;;;6.22;2.05;;;18.80;99.20;;;19.20;100.00;99976.34;5026264;28;20056;-77
2022/06/08 07:06:29;;;;;;;5.88;2.60;;;18.80;99.30;;;19.13;100.00;99985.72;5026046;28;20049;-81
2022/06/08 07:09:01;;;;;;;5.78;1.80;;;18.90;99.20;;;19.13;100.00;99978.56;5026221;28;20057;-76
2022/06/08 07:11:37;;;;;;;6.03;2.40;;;19.20;99.10;;;19.25;100.00;99965.38;5025581;28;20053;-79
2022/06/08 07:14:17;;;;;;;6.13;2.00;;;19.00;99.30;;;19.24;100.00;99966.34;5011778;28;20685;-77
2022/06/08 07:16:46;;;;;;;3.65;2.60;;;19.00;99.20;;;19.24;100.00;99971.66;5022278;28;20073;-79
2022/06/08 07:19:19;;;;;;;10.60;2.63;;;19.10;99.20;;;19.37;100.00;99963.69;4991212;28;20411;-78
2022/06/08 07:21:47;;;;;;;4.70;1.92;;;19.10;99.10;;;19.45;100.00;99958.72;4990262;28;20050;-77
2022/06/08 07:24:30;;;;;;;3.90;1.88;;;19.20;99.20;;;19.54;100.00;99951.88;5019423;28;20037;-79
2022/06/08 07:26:58;;;;;;;3.78;1.70;;;19.20;98.80;;;19.54;100.00;99957.22;5010291;28;20461;-76
2022/06/08 07:29:26;;;;;;;4.20;1.85;;;19.30;98.60;;;19.87;100.00;99960.31;5029654;28;20116;-77
2022/06/08 07:31:53;;;;;;;4.68;1.83;;;19.40;98.30;;;19.86;100.00;99953.28;5036116;28;20064;-80
2022/06/08 07:34:21;;;;;;;7.72;2.83;;;19.60;98.20;;;19.87;100.00;99953.19;5040745;28;20049;-77
2022/06/08 07:36:49;;;;;;;8.18;1.90;;;19.60;98.00;;;19.97;100.00;99942.75;5030282;28;20525;-77
2022/06/08 07:39:17;;;;;;;5.70;2.63;;;19.70;98.00;;;20.02;100.00;99935.25;5031481;28;20037;-75
2022/06/08 07:41:46;;;;;;;5.82;2.20;;;19.70;98.00;;;20.17;100.00;99941.34;5013754;28;20676;-76
2022/06/08 07:44:15;;;;;;;6.82;2.28;;;19.80;98.20;;;20.26;100.00;99937.97;5046314;28;20049;-76
2022/06/08 07:46:44;;;;;;;3.42;1.75;;;19.80;98.30;;;20.43;100.00;99941.25;5026291;28;20132;-78
2022/06/08 07:52:00;;;;;;;5.13;2.10;;;20.10;97.50;;;20.35;100.00;99939.13;5029464;28;20494;-74
2022/06/08 07:54:30;;;;;;;6.45;2.20;;;20.00;97.70;;;20.31;100.00;99936.81;5029448;28;20509;-74
2022/06/08 07:56:59;;;;;;;3.40;2.03;;;20.00;97.70;;;20.23;100.00;99940.03;5028535;28;20041;-75
2022/06/08 07:59:30;;;;;;;5.32;2.25;;;20.00;97.80;;;20.22;100.00;99941.84;5028120;28;20398;-75
2022/06/08 08:01:58;;;;;;;5.80;2.28;;;20.00;97.60;;;20.30;100.00;99935.94;5027821;28;20068;-77
2022/06/08 08:04:25;;;;;;;6.40;2.38;;;20.00;97.90;;;20.31;100.00;99926.97;5026813;28;20053;-76
2022/06/08 08:06:53;;;;;;;3.70;2.10;;;20.10;97.80;;;20.39;100.00;99929.97;5008636;28;20076;-76
2022/06/08 08:09:23;;;;;;;6.78;2.28;;;19.70;97.70;;;20.46;100.00;99927.69;5029612;28;20051;-76
2022/06/08 08:11:53;;;;;;;5.38;2.03;;;20.10;97.70;;;20.52;100.00;99921.03;5029775;28;20041;-75
2022/06/08 08:14:24;;;;;;;6.70;2.42;;;20.10;97.60;;;20.62;100.00;99914.06;5012218;28;20048;-76
2022/06/08 08:16:51;;;;;;;5.72;2.55;;;20.20;98.00;;;20.62;100.00;99913.22;5029097;28;20042;-76
2022/06/08 08:19:23;;;;;;;4.15;1.83;;;20.30;97.50;;;20.72;100.00;99910.72;5029426;28;20489;-76
2022/06/08 08:21:51;;;;;;;6.07;2.38;;;20.30;97.40;;;20.72;100.00;99908.03;5045006;28;20041;-76
2022/06/08 08:24:19;;;;;;;4.20;2.40;;;20.40;97.40;;;20.75;100.00;99911.31;5044627;28;20136;-76
2022/06/08 08:26:49;;;;;;;3.67;2.05;;;20.40;97.30;;;20.75;100.00;99905.13;5045040;28;20124;-76
2022/06/08 08:29:18;;;;;;;3.17;1.80;;;20.40;97.10;;;20.82;100.00;99890.34;5029718;28;20104;-76
2022/06/08 08:31:45;;;;;;;4.00;1.95;;;20.40;97.20;;;20.95;100.00;99895.66;5045045;28;20095;-76
2022/06/08 08:34:13;;;;;;;5.78;2.10;;;20.60;97.10;;;20.96;100.00;99892.84;5028168;28;20072;-76
2022/06/08 08:36:42;;;;;;;6.90;2.10;;;20.60;96.90;;;21.09;100.00;99892.78;5045149;28;20537;-76
2022/06/08 08:39:09;;;;;;;5.10;2.22;;;20.70;97.10;;;21.17;100.00;99886.00;5028256;28;20065;-76
2022/06/08 08:44:38;;;;;;;6.28;2.20;;;20.80;96.60;;;21.24;100.00;99880.06;5042253;28;20071;-76
2022/06/08 08:47:55;;;;;;;4.68;1.67;;;20.80;96.70;;;21.31;100.00;99864.38;5028048;28;20729;-76
2022/06/08 08:50:37;;;;;;;8.18;2.00;;;20.90;95.90;;;21.35;100.00;99859.66;5028992;28;20145;-76
2022/06/08 08:53:17;;;;;;;4.40;1.85;;;21.00;95.50;;;21.43;100.00;99861.75;5028127;28;20076;-76
2022/06/08 08:55:49;;;;;;;4.13;1.75;;;21.00;95.50;;;21.47;100.00;99856.03;5027782;28;20055;-76
2022/06/08 08:58:39;;;;;;;5.00;2.28;;;21.90;95.40;;;21.66;100.00;99849.25;5029420;28;20051;-76
2022/06/08 09:01:34;;;;;;;4.40;2.03;;;21.20;94.50;;;21.69;97.81;99846.34;5027670;28;20087;-76
2022/06/08 09:04:35;;;;;;;4.72;1.67;;;21.20;94.30;;;21.79;100.00;99847.31;5012502;28;20131;-76
2022/06/08 09:07:19;;;;;;;4.70;1.45;;;21.30;94.20;;;21.93;100.00;99837.28;5027742;28;20053;-76
2022/06/08 09:09:46;;;;;;;5.95;1.95;;;21.40;94.60;;;21.89;98.72;99834.03;5027893;28;20049;-76
2022/06/08 09:12:19;;;;;;;5.20;1.88;;;21.50;94.00;;;21.86;100.00;99830.75;5024088;28;20145;-76
2022/06/08 09:15:01;;;;;;;11.05;2.30;;;21.50;94.20;;;21.91;96.49;99833.91;5008199;28;20045;-76
2022/06/08 09:17:37;;;;;;;8.10;1.90;;;21.60;93.60;;;21.90;96.83;99840.22;5024027;28;20038;-76
2022/06/08 09:20:16;;;;;;;5.65;1.65;;;21.60;93.60;;;21.98;96.27;99840.47;5027234;28;20148;-76
2022/06/08 09:22:52;;;;;;;3.10;1.55;;;21.60;93.50;;;21.94;93.73;99831.00;5028734;28;20052;-76
2022/06/08 09:25:35;;;;;;;5.65;1.65;;;21.70;93.30;;;21.92;95.98;99823.06;5027827;28;20180;-76
2022/06/08 09:28:21;;;;;;;6.05;1.92;;;21.60;93.40;;;21.95;98.24;99816.63;5027444;28;20045;-76
2022/06/08 09:30:49;;;;;;;4.68;1.60;;;21.60;93.80;;;22.03;98.77;99811.47;5041293;28;20056;-76
2022/06/08 09:33:38;;;;;;;4.43;1.60;;;21.60;93.90;;;22.01;96.58;99801.84;5043412;28;20044;-76
2022/06/08 09:36:27;;;;;;;6.50;1.80;;;21.70;93.60;;;22.06;96.37;99808.56;5043699;28;20088;-75
2022/06/08 09:38:54;;;;;;;6.32;1.55;;;21.70;93.50;;;22.08;98.87;99795.88;5043003;28;20115;-75
2022/06/08 09:41:37;;;;;;;4.88;1.92;;;21.70;93.70;;;22.34;98.69;99798.25;5026403;28;20463;-76
2022/06/08 09:44:29;;;;;;;3.45;1.55;;;21.80;94.10;;;22.43;92.89;99803.84;5026111;28;20052;-75
2022/06/08 09:53:34;;;;;;;3.13;1.35;;;22.20;92.80;;;22.79;85.51;99799.06;5027377;28;20457;-75
2022/06/08 09:56:33;;;;;;;3.53;1.60;;;22.30;92.50;;;22.90;88.40;99793.66;5028339;28;20034;-74
2022/06/08 09:59:21;;;;;;;2.88;1.48;;;22.40;92.80;;;22.87;82.96;99793.06;4975770;28;20049;-75
2022/06/08 10:02:24;;;;;;;4.78;1.50;;;22.50;92.00;;;22.85;81.95;99782.44;5028669;28;20137;-75
2022/06/08 10:05:16;;;;;;;5.70;2.05;;;22.50;91.70;;;22.88;74.42;99790.25;5027613;28;20683;-75
2022/06/08 10:08:01;;;;;;;4.63;1.60;;;22.60;90.90;;;23.04;78.15;99783.56;5027955;28;20142;-75
2022/06/08 10:10:34;;;;;;;3.17;1.65;;;22.60;91.40;;;;;;5026197;28;20780;-75
2022/06/08 10:13:16;;;;;;;3.90;1.48;;;22.60;91.30;;;23.14;77.00;99775.56;5028050;28;20042;-74
2022/06/08 10:15:53;;;;;;;5.00;1.38;;;22.70;91.00;;;23.10;72.80;99777.66;5026669;28;20417;-75
2022/06/08 10:18:37;;;;;;;4.00;1.70;;;22.80;90.50;;;23.21;74.73;99768.69;5042909;28;20116;-75
2022/06/08 10:21:26;;;;;;;4.63;1.73;;;22.80;90.70;;;23.34;72.67;99758.59;5027333;28;20056;-75
2022/06/08 10:24:13;;;;;;;6.78;1.40;;;22.90;90.50;;;23.57;72.85;99760.25;5042686;28;20076;-75
2022/06/08 10:26:49;;;;;;;3.80;1.60;;;23.00;90.50;;;23.73;72.29;99757.88;5027747;28;20045;-75
2022/06/08 10:29:21;;;;;;;7.35;1.33;;;23.10;90.50;;;23.74;53.68;99759.59;5041827;28;20061;-75
2022/06/08 10:32:19;;;;;;;1.92;1.05;;;23.30;84.20;;;23.93;50.79;99753.41;5025794;28;20050;-75
2022/06/08 10:34:53;;;;;;;3.40;1.23;;;23.40;81.70;;;24.01;49.46;99747.34;5009778;28;20164;-75
2022/06/08 10:37:40;;;;;;;2.75;1.00;;;23.50;80.90;;;23.82;46.81;99744.63;5027434;28;20038;-75
2022/06/08 10:40:23;;;;;;;4.03;1.38;;;23.50;77.00;;;23.89;47.35;99743.94;5025484;28;20049;-75
2022/06/08 10:42:52;;;;;;;2.65;1.23;;;23.50;77.40;;;23.96;47.89;99746.91;5042141;28;20092;-74
2022/06/08 10:45:28;;;;;;;5.45;1.55;;;23.50;77.30;;;23.90;48.45;99748.34;5025797;28;20064;-75
2022/06/08 10:48:33;;;;;;;3.20;1.00;;;23.60;77.30;;;24.03;49.82;99740.03;5026006;28;20068;-75
2022/06/08 10:51:15;;;;;;;3.33;1.27;;;23.50;78.40;;;24.17;49.62;99729.84;4998935;28;20087;-75
2022/06/08 10:56:57;;;;;;;5.25;1.92;;;23.80;77.50;;;24.13;48.56;99736.50;5025853;28;20109;-76
2022/06/08 10:59:29;;;;;;;3.78;1.35;;;23.80;76.50;;;24.22;49.26;99716.84;5028898;28;20580;-74
2022/06/08 11:02:16;;;;;;;4.50;1.35;;;23.90;76.80;;;24.51;49.85;99721.34;5024662;28;20763;-76
2022/06/08 11:05:12;;;;;;;2.40;1.33;;;23.90;77.50;;;24.81;44.93;99721.31;4995252;28;20487;-75
2022/06/08 11:07:58;;;;;;;4.40;1.70;;;24.20;74.70;;;25.00;44.71;99712.34;4992926;28;20485;-76